Averill, Minnesota
Current Conditions -  °F | °C
As of 10:11 AM on Sunday 23 Nov 2014 (Local Time) from KJKJ Reporting Station
Broken Clouds Broken Clouds  
Wind Chill:   Ceiling: 4000
Heat Index:   Visibility: 10mi
Dew Point:   Wind: 5mph
Humidity: 100%   Direction: 230°SW
Pressure: 29.44"   Gusts: NA
Location:  46.8905°N, 96.5417°W
Report Text: KJKJ 231611Z AUTO 23004KT 10SM BKN040 04/04 A2944 RMK AO2
Loading
Personal Weather Stations






























Interactive Weather Map New forecast layout! Learn more

10-Day Weather Forecast

Advertisements
Track Severe Weather on mobile